createdAt,value
2019-01-19T00:05:02.214Z,17
2019-01-19T00:10:04.648Z,8
2019-01-19T00:15:07.113Z,8
2019-01-19T00:20:09.513Z,10
2019-01-19T00:25:11.980Z,10
2019-01-19T00:30:14.456Z,8
2019-01-19T00:35:17.910Z,9
2019-01-19T00:40:19.348Z,10
2019-01-19T00:45:21.798Z,10
2019-01-19T00:50:24.270Z,11
2019-01-19T00:55:26.787Z,12
2019-01-19T01:00:29.188Z,10
2019-01-19T01:05:31.631Z,9
2019-01-19T01:10:34.096Z,9
2019-01-19T01:15:36.609Z,9
2019-01-19T01:20:38.990Z,9
2019-01-19T01:25:41.442Z,8
2019-01-19T01:30:43.955Z,7
2019-01-19T01:35:46.403Z,8
2019-01-19T01:40:48.836Z,10
2019-01-19T01:45:51.282Z,9
2019-01-19T01:50:53.754Z,11
2019-01-19T01:55:56.229Z,6
2019-01-19T02:00:58.655Z,6
2019-01-19T02:06:01.197Z,8
2019-01-19T02:11:03.554Z,9
2019-01-19T02:16:06.047Z,9
2019-01-19T02:21:08.475Z,8
2019-01-19T02:26:10.937Z,7
2019-01-19T02:31:13.386Z,11
2019-01-19T02:36:15.859Z,6
2019-01-19T02:41:18.328Z,8
2019-01-19T02:46:20.761Z,8
2019-01-19T02:51:23.213Z,7
2019-01-19T02:56:25.668Z,6
2019-01-19T03:01:28.132Z,4
2019-01-19T03:06:30.604Z,7
2019-01-19T03:11:33.048Z,11
2019-01-19T03:16:35.514Z,6
2019-01-19T03:21:37.993Z,9
2019-01-19T03:26:40.549Z,8
2019-01-19T03:31:42.888Z,6
2019-01-19T03:36:45.377Z,8
2019-01-19T03:41:47.787Z,7
2019-01-19T03:46:50.245Z,7
2019-01-19T03:51:52.711Z,4
2019-01-19T03:56:55.165Z,4
2019-01-19T04:01:57.611Z,4
2019-01-19T04:07:00.068Z,7
2019-01-19T04:12:02.594Z,4
2019-01-19T04:17:04.991Z,4
2019-01-19T04:22:07.476Z,4
2019-01-19T04:27:09.938Z,5
2019-01-19T04:32:12.390Z,8
2019-01-19T04:37:14.938Z,9
2019-01-19T04:42:17.300Z,2
2019-01-19T04:47:19.773Z,5
2019-01-19T04:52:22.183Z,4
2019-01-19T04:57:24.665Z,4
2019-01-19T05:02:27.106Z,5
2019-01-19T05:07:29.579Z,5
2019-01-19T05:12:32.077Z,4
2019-01-19T05:17:34.477Z,4
2019-01-19T05:22:36.984Z,4
2019-01-19T05:27:39.444Z,4
2019-01-19T05:32:41.860Z,4
2019-01-19T05:37:44.366Z,4
2019-01-19T05:42:47.124Z,4
2019-01-19T05:47:49.222Z,3
2019-01-19T05:52:51.721Z,4
2019-01-19T05:57:54.148Z,9
2019-01-19T06:02:56.621Z,6
2019-01-19T06:07:59.029Z,3
2019-01-19T06:13:01.518Z,6
2019-01-19T06:18:03.970Z,6
2019-01-19T06:23:06.401Z,6
2019-01-19T06:28:08.966Z,10
2019-01-19T06:33:11.325Z,11
2019-01-19T06:38:14.130Z,9
2019-01-19T06:43:16.306Z,18
2019-01-19T06:48:18.756Z,10
2019-01-19T06:53:21.197Z,17
2019-01-19T06:58:23.597Z,13
2019-01-19T07:03:26.072Z,22
2019-01-19T07:08:28.515Z,13
2019-01-19T07:13:30.978Z,15
2019-01-19T07:18:33.475Z,22
2019-01-19T07:23:35.932Z,34
2019-01-19T07:28:38.389Z,44
2019-01-19T07:33:40.883Z,36
2019-01-19T07:38:43.255Z,38
2019-01-19T07:43:45.729Z,21
2019-01-19T07:48:48.174Z,15
2019-01-19T07:53:50.642Z,10
2019-01-19T07:58:53.092Z,8
2019-01-19T08:03:55.555Z,9
2019-01-19T08:08:57.998Z,10
2019-01-19T08:14:00.470Z,5
2019-01-19T08:19:02.917Z,4
2019-01-19T08:24:05.381Z,5
2019-01-19T08:29:07.836Z,9
2019-01-19T08:34:10.315Z,12
2019-01-19T08:39:12.787Z,25
2019-01-19T08:44:15.228Z,30
2019-01-19T08:49:17.682Z,27
2019-01-19T08:54:20.149Z,26
2019-01-19T08:59:22.590Z,37
2019-01-19T09:04:25.224Z,35
2019-01-19T09:09:27.506Z,39
2019-01-19T09:14:29.962Z,39
2019-01-19T09:19:32.501Z,38
2019-01-19T09:24:34.880Z,34
2019-01-19T09:29:37.373Z,39
2019-01-19T09:34:39.794Z,48
2019-01-19T09:39:42.247Z,32
2019-01-19T09:44:44.963Z,35
2019-01-19T09:49:47.197Z,40
2019-01-19T09:54:49.621Z,30
2019-01-19T09:59:52.084Z,21
2019-01-19T10:04:54.553Z,24
2019-01-19T10:09:56.993Z,28
2019-01-19T10:14:59.451Z,33
2019-01-19T10:20:01.967Z,22
2019-01-19T10:25:04.401Z,22
2019-01-19T10:30:06.871Z,19
2019-01-19T10:35:09.341Z,14
2019-01-19T10:40:11.778Z,13
2019-01-19T10:45:14.209Z,18
2019-01-19T10:50:16.702Z,15
2019-01-19T10:55:19.141Z,16
2019-01-19T11:00:21.644Z,11
2019-01-19T11:05:24.098Z,5
2019-01-19T11:10:26.558Z,4
2019-01-19T11:15:29.015Z,3
2019-01-19T11:20:31.441Z,3
2019-01-19T11:25:33.894Z,3
2019-01-19T11:30:36.324Z,3
2019-01-19T11:35:38.793Z,3
2019-01-19T11:40:41.252Z,5
2019-01-19T11:45:43.698Z,3
2019-01-19T11:50:46.228Z,3
2019-01-19T11:55:48.690Z,4
2019-01-19T12:00:51.076Z,3
2019-01-19T12:05:53.606Z,5
2019-01-19T12:10:56.092Z,3
2019-01-19T12:15:58.447Z,6
2019-01-19T12:21:00.916Z,3
2019-01-19T12:26:03.370Z,3
2019-01-19T12:31:05.837Z,3
2019-01-19T12:36:08.277Z,2
2019-01-19T12:41:10.737Z,2
2019-01-19T12:46:13.212Z,2
2019-01-19T12:51:15.647Z,2
2019-01-19T12:56:18.098Z,3
2019-01-19T13:01:20.573Z,3
2019-01-19T13:06:23.046Z,3
2019-01-19T13:11:25.487Z,4
2019-01-19T13:16:27.943Z,3
2019-01-19T13:21:30.423Z,3
2019-01-19T13:26:32.897Z,6
2019-01-19T13:31:35.408Z,3
2019-01-19T13:36:37.785Z,3
2019-01-19T13:41:40.229Z,3
2019-01-19T13:46:42.678Z,3
2019-01-19T13:51:45.143Z,3
2019-01-19T13:56:47.642Z,4
2019-01-19T14:01:50.053Z,3
2019-01-19T14:06:52.506Z,5
2019-01-19T14:11:55.043Z,4
2019-01-19T14:16:57.412Z,4
2019-01-19T14:21:59.880Z,9
2019-01-19T14:27:02.386Z,15
2019-01-19T14:32:04.789Z,7
2019-01-19T14:37:07.286Z,15
2019-01-19T14:42:09.778Z,25
2019-01-19T14:47:12.222Z,41
2019-01-19T14:52:14.628Z,26
2019-01-19T14:57:17.090Z,8
2019-01-19T15:02:19.554Z,10
2019-01-19T15:07:22.016Z,6
2019-01-19T15:12:24.479Z,4
2019-01-19T15:17:26.927Z,3
2019-01-19T15:22:29.423Z,2
2019-01-19T15:27:31.860Z,3
2019-01-19T15:32:34.368Z,4
2019-01-19T15:37:36.787Z,3
2019-01-19T15:42:39.249Z,5
2019-01-19T15:47:41.720Z,6
2019-01-19T15:52:44.206Z,14
2019-01-19T15:57:46.634Z,11
2019-01-19T16:02:49.098Z,5
2019-01-19T16:07:51.551Z,3
2019-01-19T16:12:54.104Z,4
2019-01-19T16:17:56.476Z,4
2019-01-19T16:22:58.916Z,8
2019-01-19T16:28:01.440Z,7
2019-01-19T16:33:03.829Z,6
2019-01-19T16:38:06.331Z,7
2019-01-19T16:43:09.039Z,9
2019-01-19T16:48:11.249Z,9
2019-01-19T16:53:13.687Z,8
2019-01-19T16:58:16.184Z,9
2019-01-19T17:03:18.562Z,11
2019-01-19T17:08:21.018Z,10
2019-01-19T17:13:23.479Z,12
2019-01-19T17:18:26.488Z,18
2019-01-19T17:23:29.293Z,15
2019-01-19T17:28:30.870Z,12
2019-01-19T17:33:33.313Z,32
2019-01-19T17:38:35.771Z,11
2019-01-19T17:43:38.227Z,12
2019-01-19T17:48:40.674Z,16
2019-01-19T17:58:45.597Z,19
2019-01-19T18:03:48.061Z,18
2019-01-19T18:23:57.883Z,16
2019-01-19T18:29:00.356Z,11
2019-01-19T18:34:02.797Z,11
2019-01-19T18:39:05.283Z,17
2019-01-19T18:44:07.725Z,23
2019-01-19T18:49:10.176Z,19
2019-01-19T18:54:12.650Z,17
2019-01-19T19:44:37.263Z,19
2019-01-19T19:49:39.660Z,18
2019-01-19T19:54:42.088Z,13
2019-01-19T19:59:44.635Z,28
2019-01-19T20:04:47.026Z,17
2019-01-19T20:09:49.483Z,29
2019-01-19T20:14:51.930Z,18
2019-01-19T20:19:54.382Z,18
2019-01-19T20:24:56.851Z,12
2019-01-19T20:29:59.314Z,21
2019-01-19T20:35:07.087Z,14
2019-01-19T20:40:04.237Z,16
2019-01-19T20:45:06.667Z,21
2019-01-19T20:50:09.165Z,26
2019-01-19T20:55:11.579Z,20
2019-01-19T21:00:14.544Z,15
2019-01-19T21:05:16.518Z,22
2019-01-19T21:10:18.957Z,25
2019-01-19T21:15:21.417Z,22
2019-01-19T21:20:23.871Z,25
2019-01-19T21:25:26.328Z,21
2019-01-19T21:30:28.847Z,27
2019-01-19T21:35:31.404Z,28
2019-01-19T21:40:38.845Z,14
2019-01-19T21:45:36.296Z,22
2019-01-19T21:50:38.623Z,24
2019-01-19T21:55:41.061Z,25
2019-01-19T22:00:43.550Z,24
2019-01-19T22:05:49.702Z,11
2019-01-19T22:10:48.471Z,26
2019-01-19T22:15:50.888Z,19
2019-01-19T22:20:53.337Z,23
2019-01-19T22:25:55.794Z,21
2019-01-19T22:30:58.275Z,21
2019-01-19T22:36:00.909Z,27
2019-01-19T22:41:03.238Z,24
2019-01-19T22:46:05.630Z,30
2019-01-19T22:51:11.261Z,32
2019-01-19T22:56:10.531Z,31
2019-01-19T23:01:13.032Z,33
2019-01-19T23:06:15.474Z,23
2019-01-19T23:11:17.909Z,23
2019-01-19T23:16:20.369Z,28
2019-01-19T23:21:22.829Z,22
2019-01-19T23:26:25.277Z,25
2019-01-19T23:31:27.740Z,28
2019-01-19T23:36:30.208Z,29
2019-01-19T23:41:32.683Z,30
2019-01-19T23:46:35.100Z,28
2019-01-19T23:51:37.560Z,23
2019-01-19T23:56:40.041Z,27
